Time;durP1;ratioP1;P1;durP2;ratioP2;P2;SDS_P1;SDS_P2;PMS_P1;PMS_P2;Temp;Humidity;BMP_temperature;BMP_pressure;BME280_temperature;BME280_humidity;BME280_pressure;Samples;Min_cycle;Max_cycle;Signal;HPM_P1;HPM_P2
2022/02/13 00:00:00;;;;;;;19.82;14.98;;;;;;;;;;821131;72;26381;-88
2022/02/13 00:01:03;;;;;;;16.40;13.95;;;;;;;;;;821469;72;26260;-89
2022/02/13 00:02:07;;;;;;;18.15;13.83;;;;;;;;;;806017;72;26318;-87
2022/02/13 00:03:09;;;;;;;18.23;14.70;;;;;;;;;;821095;72;26292;-92
2022/02/13 00:04:14;;;;;;;18.20;14.35;;;;;;;;;;821036;72;26260;-88
2022/02/13 00:05:17;;;;;;;18.17;13.53;;;;;;;;;;821076;72;26287;-87
2022/02/13 00:06:20;;;;;;;17.42;13.70;;;;;;;;;;821067;72;26269;-85
2022/02/13 00:07:23;;;;;;;18.05;13.28;;;;;;;;;;821072;69;26232;-87
2022/02/13 00:08:26;;;;;;;17.15;14.23;;;;;;;;;;820818;72;26787;-84
2022/02/13 00:09:31;;;;;;;16.17;12.85;;;;;;;;;;815290;72;26741;-88
2022/02/13 00:10:34;;;;;;;17.90;12.90;;;;;;;;;;789241;74;26389;-87
2022/02/13 00:11:37;;;;;;;18.10;13.70;;;;;;;;;;777630;74;26351;-89
2022/02/13 00:12:41;;;;;;;17.23;13.18;;;;;;;;;;821028;72;26261;-84
2022/02/13 00:13:46;;;;;;;18.60;12.58;;;;;;;;;;820710;72;26283;-89
2022/02/13 00:14:48;;;;;;;19.32;12.35;;;;;;;;;;820578;72;26264;-86
2022/02/13 00:15:51;;;;;;;13.78;11.78;;;;;;;;;;820950;72;26346;-86
2022/02/13 00:16:54;;;;;;;16.37;11.83;;;;;;;;;;821248;72;26315;-85
2022/02/13 00:17:57;;;;;;;14.95;12.03;;;;;;;;;;820988;72;26789;-85
2022/02/13 00:18:59;;;;;;;15.38;12.07;;;;;;;;;;820743;72;26214;-87
2022/02/13 00:20:05;;;;;;;12.55;11.12;;;;;;;;;;815836;72;26261;-86
2022/02/13 00:21:07;;;;;;;13.15;11.20;;;;;;;;;;821906;72;26382;-86
2022/02/13 00:22:11;;;;;;;12.10;10.10;;;;;;;;;;821820;72;26310;-88
2022/02/13 00:23:14;;;;;;;14.75;10.40;;;;;;;;;;821693;72;26252;-86
2022/02/13 00:24:17;;;;;;;12.05;9.63;;;;;;;;;;820861;69;26253;-87
2022/02/13 00:25:19;;;;;;;18.25;10.63;;;;;;;;;;820655;72;26400;-87
2022/02/13 00:26:22;;;;;;;11.90;9.60;;;;;;;;;;820657;72;26268;-85
2022/02/13 00:27:25;;;;;;;14.75;11.12;;;;;;;;;;806092;73;26232;-85
2022/02/13 00:28:28;;;;;;;12.43;10.45;;;;;;;;;;821070;72;26558;-86
2022/02/13 00:29:31;;;;;;;13.68;10.63;;;;;;;;;;820843;72;26346;-84
2022/02/13 00:30:33;;;;;;;13.43;11.15;;;;;;;;;;820844;72;26284;-85
2022/02/13 00:31:36;;;;;;;11.97;9.48;;;;;;;;;;820517;72;26296;-84
2022/02/13 00:32:39;;;;;;;12.00;9.78;;;;;;;;;;820603;72;26282;-83
2022/02/13 00:33:42;;;;;;;13.40;10.00;;;;;;;;;;820660;72;26248;-83
2022/02/13 00:34:45;;;;;;;12.15;10.32;;;;;;;;;;820568;72;26992;-82
2022/02/13 00:35:48;;;;;;;13.80;10.30;;;;;;;;;;820815;72;26346;-85
2022/02/13 00:36:51;;;;;;;14.38;10.08;;;;;;;;;;820336;72;26266;-86
2022/02/13 00:37:54;;;;;;;10.68;8.95;;;;;;;;;;820777;72;26288;-85
2022/02/13 00:38:56;;;;;;;10.60;9.50;;;;;;;;;;820730;72;26978;-84
2022/02/13 00:39:59;;;;;;;13.30;9.75;;;;;;;;;;820646;72;26217;-83
2022/02/13 00:41:02;;;;;;;11.83;9.53;;;;;;;;;;821327;72;26321;-87
2022/02/13 00:42:05;;;;;;;14.98;9.78;;;;;;;;;;821321;72;26289;-83
2022/02/13 00:43:08;;;;;;;13.40;9.73;;;;;;;;;;820694;72;26315;-84
2022/02/13 00:44:11;;;;;;;13.70;9.55;;;;;;;;;;820814;72;26330;-84
2022/02/13 00:45:14;;;;;;;13.70;9.45;;;;;;;;;;820669;72;26718;-84
2022/02/13 00:46:16;;;;;;;16.95;9.20;;;;;;;;;;820827;72;26325;-86
2022/02/13 00:47:19;;;;;;;11.75;10.15;;;;;;;;;;820719;72;26213;-86
2022/02/13 00:48:22;;;;;;;13.55;9.15;;;;;;;;;;820440;72;26731;-86
2022/02/13 00:49:25;;;;;;;11.95;10.03;;;;;;;;;;820824;72;24653;-86
2022/02/13 00:50:28;;;;;;;10.35;9.00;;;;;;;;;;820811;72;26753;-84
2022/02/13 00:51:31;;;;;;;13.43;10.20;;;;;;;;;;821105;72;26225;-86
2022/02/13 00:52:33;;;;;;;13.80;9.63;;;;;;;;;;821247;72;26224;-87
2022/02/13 00:53:36;;;;;;;13.08;10.30;;;;;;;;;;821174;72;26648;-84
2022/02/13 00:54:39;;;;;;;12.30;8.48;;;;;;;;;;818579;70;26312;-85
2022/02/13 00:55:42;;;;;;;11.35;9.83;;;;;;;;;;818396;72;24690;-87
2022/02/13 00:56:44;;;;;;;12.00;9.08;;;;;;;;;;793286;75;26207;-86
2022/02/13 00:57:47;;;;;;;11.68;10.05;;;;;;;;;;808695;73;26255;-85
2022/02/13 00:58:50;;;;;;;10.80;9.25;;;;;;;;;;808819;73;26298;-85
2022/02/13 00:59:53;;;;;;;13.40;9.93;;;;;;;;;;809078;73;26247;-84
2022/02/13 01:00:57;;;;;;;13.08;9.48;;;;;;;;;;809334;72;26294;-85
2022/02/13 01:02:00;;;;;;;13.03;10.03;;;;;;;;;;809322;72;26283;-83
2022/02/13 01:03:03;;;;;;;10.98;8.68;;;;;;;;;;809206;73;26249;-84
2022/02/13 01:04:06;;;;;;;11.15;9.20;;;;;;;;;;809033;72;26236;-84
2022/02/13 01:05:09;;;;;;;12.15;8.90;;;;;;;;;;807951;73;24605;-83
2022/02/13 01:06:12;;;;;;;11.30;8.73;;;;;;;;;;807711;73;26392;-85
2022/02/13 01:07:15;;;;;;;11.80;8.53;;;;;;;;;;807752;73;26766;-85
2022/02/13 01:08:18;;;;;;;11.08;9.25;;;;;;;;;;807696;73;26779;-84
2022/02/13 01:09:20;;;;;;;9.33;8.33;;;;;;;;;;807648;73;26364;-85
2022/02/13 01:10:23;;;;;;;10.30;8.20;;;;;;;;;;807479;72;26244;-84
2022/02/13 01:11:27;;;;;;;10.65;8.18;;;;;;;;;;806763;73;26256;-84
2022/02/13 01:12:30;;;;;;;9.40;8.40;;;;;;;;;;807584;73;26307;-83
2022/02/13 01:13:33;;;;;;;11.40;8.50;;;;;;;;;;807645;73;26294;-87
2022/02/13 01:14:36;;;;;;;10.93;8.48;;;;;;;;;;807527;73;26274;-85
2022/02/13 01:15:38;;;;;;;9.60;8.13;;;;;;;;;;807375;73;26321;-85
2022/02/13 01:16:41;;;;;;;8.70;7.80;;;;;;;;;;807495;73;26231;-85
2022/02/13 01:17:44;;;;;;;10.00;8.28;;;;;;;;;;807522;72;26336;-84
2022/02/13 01:18:46;;;;;;;11.88;7.97;;;;;;;;;;807581;73;26378;-85
2022/02/13 01:19:49;;;;;;;9.18;7.45;;;;;;;;;;807615;72;26307;-84
2022/02/13 01:20:52;;;;;;;9.95;7.15;;;;;;;;;;807839;73;27254;-85
2022/02/13 01:21:55;;;;;;;10.98;7.72;;;;;;;;;;807728;73;26307;-84
2022/02/13 01:22:58;;;;;;;10.50;7.87;;;;;;;;;;807701;73;26318;-82
2022/02/13 01:24:00;;;;;;;10.90;7.35;;;;;;;;;;807750;72;26267;-85
2022/02/13 01:25:05;;;;;;;10.55;8.30;;;;;;;;;;807832;73;26323;-86
2022/02/13 01:26:08;;;;;;;8.30;7.03;;;;;;;;;;807681;73;26291;-85
2022/02/13 01:27:12;;;;;;;8.30;6.87;;;;;;;;;;808115;73;26216;-83
2022/02/13 01:28:14;;;;;;;11.43;7.30;;;;;;;;;;808898;73;26313;-84
2022/02/13 01:29:18;;;;;;;12.58;8.10;;;;;;;;;;808727;73;26242;-85
2022/02/13 01:30:21;;;;;;;10.38;7.65;;;;;;;;;;808603;73;26328;-86
2022/02/13 01:31:23;;;;;;;9.23;7.65;;;;;;;;;;808513;73;24718;-84
2022/02/13 01:32:26;;;;;;;9.80;7.85;;;;;;;;;;807803;73;27012;-86
2022/02/13 01:33:29;;;;;;;9.55;7.83;;;;;;;;;;808173;72;26360;-86
2022/02/13 01:34:33;;;;;;;9.35;7.50;;;;;;;;;;807320;73;26290;-86
2022/02/13 01:35:35;;;;;;;9.65;7.55;;;;;;;;;;807383;73;26239;-85
2022/02/13 01:36:38;;;;;;;8.90;8.00;;;;;;;;;;807422;72;26263;-84
2022/02/13 01:37:41;;;;;;;10.72;7.50;;;;;;;;;;807586;73;26272;-85
2022/02/13 01:38:44;;;;;;;9.98;8.25;;;;;;;;;;807662;73;24589;-87
2022/02/13 01:39:47;;;;;;;15.03;7.83;;;;;;;;;;807428;73;24728;-85
2022/02/13 01:40:50;;;;;;;8.98;7.87;;;;;;;;;;807204;73;26267;-86
2022/02/13 01:41:55;;;;;;;9.85;8.25;;;;;;;;;;807218;73;26368;-85
2022/02/13 01:42:58;;;;;;;8.83;7.92;;;;;;;;;;807204;73;26287;-84
2022/02/13 01:44:00;;;;;;;10.75;8.20;;;;;;;;;;807383;73;24732;-87
2022/02/13 01:45:03;;;;;;;11.25;8.60;;;;;;;;;;807585;72;24655;-84
2022/02/13 01:46:06;;;;;;;10.65;8.88;;;;;;;;;;807173;73;26815;-84
2022/02/13 01:47:10;;;;;;;9.60;8.20;;;;;;;;;;807176;73;26399;-86
2022/02/13 01:48:13;;;;;;;9.28;8.20;;;;;;;;;;807114;73;26286;-85
2022/02/13 01:49:16;;;;;;;9.13;8.20;;;;;;;;;;807140;73;26298;-86
2022/02/13 01:50:20;;;;;;;9.08;8.15;;;;;;;;;;807205;73;26318;-86
2022/02/13 01:51:24;;;;;;;10.40;8.60;;;;;;;;;;807373;72;26286;-82
2022/02/13 01:52:27;;;;;;;9.85;8.85;;;;;;;;;;807301;72;26293;-86
2022/02/13 01:53:31;;;;;;;9.83;8.63;;;;;;;;;;807218;72;26328;-84
2022/02/13 01:54:36;;;;;;;8.98;8.00;;;;;;;;;;807186;73;26307;-85
2022/02/13 01:55:38;;;;;;;12.80;9.33;;;;;;;;;;810868;72;24654;-85
2022/02/13 01:56:41;;;;;;;10.63;8.95;;;;;;;;;;815450;73;26272;-84
2022/02/13 01:57:46;;;;;;;11.28;9.15;;;;;;;;;;799903;74;26248;-87
2022/02/13 01:58:48;;;;;;;10.20;8.63;;;;;;;;;;815068;73;26241;-87
2022/02/13 01:59:51;;;;;;;9.48;8.13;;;;;;;;;;800002;74;26299;-85
2022/02/13 02:00:54;;;;;;;10.80;9.00;;;;;;;;;;815103;73;26471;-84
2022/02/13 02:01:59;;;;;;;11.73;8.90;;;;;;;;;;815050;73;26287;-86
2022/02/13 02:03:02;;;;;;;10.08;8.65;;;;;;;;;;815019;73;24665;-84
2022/02/13 02:04:04;;;;;;;9.63;8.63;;;;;;;;;;815042;73;26323;-83
2022/02/13 02:05:07;;;;;;;11.80;9.83;;;;;;;;;;814994;73;24735;-82
2022/02/13 02:06:10;;;;;;;9.98;8.30;;;;;;;;;;800544;74;24652;-87
2022/02/13 02:07:13;;;;;;;9.60;8.70;;;;;;;;;;814927;73;26292;-83
2022/02/13 02:08:16;;;;;;;12.45;9.58;;;;;;;;;;815103;73;26229;-86
2022/02/13 02:09:22;;;;;;;10.68;9.35;;;;;;;;;;814831;73;26304;-84
2022/02/13 02:10:25;;;;;;;12.80;9.35;;;;;;;;;;814959;73;26225;-85
2022/02/13 02:11:28;;;;;;;11.83;9.00;;;;;;;;;;814950;73;26334;-85
2022/02/13 02:12:32;;;;;;;12.88;9.43;;;;;;;;;;800078;74;26311;-86
2022/02/13 02:13:35;;;;;;;11.93;9.33;;;;;;;;;;815182;73;26714;-86
2022/02/13 02:14:37;;;;;;;11.03;9.03;;;;;;;;;;800237;74;26744;-84
2022/02/13 02:15:40;;;;;;;9.93;8.93;;;;;;;;;;800101;74;26361;-84
2022/02/13 02:16:43;;;;;;;9.45;8.00;;;;;;;;;;815429;72;24309;-86
2022/02/13 02:17:45;;;;;;;9.13;8.20;;;;;;;;;;815457;73;27025;-83
2022/02/13 02:18:48;;;;;;;11.53;9.23;;;;;;;;;;815212;73;26249;-85
2022/02/13 02:19:51;;;;;;;10.80;9.50;;;;;;;;;;815148;73;26266;-84
2022/02/13 02:20:56;;;;;;;10.55;8.45;;;;;;;;;;815388;73;26510;-84
2022/02/13 02:21:58;;;;;;;10.35;8.80;;;;;;;;;;797911;74;26365;-86
2022/02/13 02:23:01;;;;;;;11.53;8.65;;;;;;;;;;788977;75;26335;-84
2022/02/13 02:24:03;;;;;;;9.75;8.75;;;;;;;;;;815334;73;26324;-85
2022/02/13 02:25:06;;;;;;;10.55;8.18;;;;;;;;;;815422;73;26260;-83
2022/02/13 02:26:09;;;;;;;9.13;8.00;;;;;;;;;;815579;73;26296;-85
2022/02/13 02:27:13;;;;;;;9.88;7.25;;;;;;;;;;815446;73;26296;-83
2022/02/13 02:28:15;;;;;;;9.20;7.10;;;;;;;;;;815612;73;26333;-84
2022/02/13 02:29:20;;;;;;;7.62;6.83;;;;;;;;;;815169;73;26761;-83
2022/02/13 02:30:22;;;;;;;8.30;7.47;;;;;;;;;;815292;73;26302;-86
2022/02/13 02:31:25;;;;;;;8.70;7.25;;;;;;;;;;800182;74;26341;-84
2022/02/13 02:32:28;;;;;;;7.53;6.72;;;;;;;;;;815397;73;26378;-84
2022/02/13 02:33:31;;;;;;;8.75;7.90;;;;;;;;;;815289;73;26225;-84
2022/02/13 02:34:33;;;;;;;7.17;6.47;;;;;;;;;;815427;73;26292;-84
2022/02/13 02:35:36;;;;;;;7.75;6.95;;;;;;;;;;815372;73;26347;-86
2022/02/13 02:36:39;;;;;;;6.92;6.22;;;;;;;;;;815319;73;26772;-84
2022/02/13 02:37:42;;;;;;;8.23;7.10;;;;;;;;;;815100;73;24413;-84
2022/02/13 02:38:44;;;;;;;7.62;6.78;;;;;;;;;;799959;74;26767;-84
2022/02/13 02:39:47;;;;;;;6.85;6.15;;;;;;;;;;814835;73;26698;-85
2022/02/13 02:40:50;;;;;;;6.47;5.45;;;;;;;;;;815077;73;26767;-84
2022/02/13 02:41:53;;;;;;;8.95;6.03;;;;;;;;;;815255;73;26271;-84
2022/02/13 02:42:56;;;;;;;9.25;5.97;;;;;;;;;;800113;74;27026;-82
2022/02/13 02:43:59;;;;;;;7.72;6.20;;;;;;;;;;815379;73;26775;-81
2022/02/13 02:45:01;;;;;;;8.05;6.55;;;;;;;;;;801294;74;26330;-86
2022/02/13 02:46:04;;;;;;;7.58;5.90;;;;;;;;;;815397;73;26647;-84
2022/02/13 02:47:07;;;;;;;7.05;5.90;;;;;;;;;;815178;73;26225;-84
2022/02/13 02:48:10;;;;;;;6.62;5.95;;;;;;;;;;800082;74;26721;-83
2022/02/13 02:49:13;;;;;;;7.70;5.60;;;;;;;;;;815241;73;26257;-85
2022/02/13 02:50:16;;;;;;;5.95;5.40;;;;;;;;;;815077;73;26788;-84
2022/02/13 02:51:20;;;;;;;6.40;5.70;;;;;;;;;;815171;73;26276;-85
2022/02/13 02:52:23;;;;;;;6.17;5.35;;;;;;;;;;815201;73;26307;-84
2022/02/13 02:53:25;;;;;;;7.30;5.75;;;;;;;;;;815338;73;26241;-84
2022/02/13 02:54:29;;;;;;;7.65;5.40;;;;;;;;;;815098;73;24472;-84
2022/02/13 02:55:31;;;;;;;6.75;5.20;;;;;;;;;;815049;73;24696;-84
2022/02/13 02:56:34;;;;;;;7.83;5.10;;;;;;;;;;814856;71;26420;-85
2022/02/13 02:57:37;;;;;;;6.12;4.40;;;;;;;;;;815042;73;26764;-85
2022/02/13 02:58:39;;;;;;;10.50;5.62;;;;;;;;;;814874;73;26304;-83
2022/02/13 02:59:42;;;;;;;6.87;4.87;;;;;;;;;;815246;72;26269;-85
2022/02/13 03:00:45;;;;;;;5.35;4.85;;;;;;;;;;814991;73;26300;-85
2022/02/13 03:01:48;;;;;;;4.95;4.45;;;;;;;;;;815214;73;26292;-86
2022/02/13 03:02:51;;;;;;;6.05;4.55;;;;;;;;;;815297;73;26312;-85
2022/02/13 03:03:53;;;;;;;7.20;5.47;;;;;;;;;;797903;74;26287;-84
2022/02/13 03:04:56;;;;;;;5.75;4.72;;;;;;;;;;815453;73;26218;-86
2022/02/13 03:05:59;;;;;;;5.90;5.25;;;;;;;;;;815445;73;26269;-85
2022/02/13 03:07:01;;;;;;;5.35;4.75;;;;;;;;;;815822;73;26300;-83
2022/02/13 03:08:04;;;;;;;7.00;5.35;;;;;;;;;;816244;73;26296;-86
2022/02/13 03:09:07;;;;;;;6.62;5.42;;;;;;;;;;816598;73;26189;-84
2022/02/13 03:10:10;;;;;;;4.12;3.72;;;;;;;;;;801619;74;26349;-84
2022/02/13 03:11:12;;;;;;;5.03;4.53;;;;;;;;;;816825;73;26261;-85
2022/02/13 03:12:15;;;;;;;4.65;4.17;;;;;;;;;;816747;73;26285;-85
2022/02/13 03:13:24;;;;;;;6.35;4.60;;;;;;;;;;816993;72;26237;-86
2022/02/13 03:14:23;;;;;;;6.33;4.53;;;;;;;;;;815335;72;26198;-86
2022/02/13 03:15:26;;;;;;;5.65;4.15;;;;;;;;;;816717;73;26254;-84
2022/02/13 03:16:29;;;;;;;6.25;4.03;;;;;;;;;;801436;74;26283;-86
2022/02/13 03:17:32;;;;;;;7.78;4.90;;;;;;;;;;798195;74;26777;-86
2022/02/13 03:18:35;;;;;;;6.20;4.28;;;;;;;;;;816063;73;26253;-83
2022/02/13 03:19:38;;;;;;;6.03;4.28;;;;;;;;;;816046;73;26278;-85
2022/02/13 03:20:41;;;;;;;5.40;4.70;;;;;;;;;;816084;73;26354;-84
2022/02/13 03:21:44;;;;;;;4.75;4.30;;;;;;;;;;800838;74;26404;-83
2022/02/13 03:22:46;;;;;;;7.62;4.00;;;;;;;;;;815124;73;26760;-85
2022/02/13 03:23:49;;;;;;;5.85;4.12;;;;;;;;;;815184;72;26635;-85
2022/02/13 03:24:58;;;;;;;5.58;4.08;;;;;;;;;;815269;73;26210;-84
2022/02/13 03:25:56;;;;;;;6.25;4.25;;;;;;;;;;797522;73;26393;-85
2022/02/13 03:26:59;;;;;;;4.75;3.85;;;;;;;;;;815377;73;26338;-83
2022/02/13 03:28:01;;;;;;;4.65;4.12;;;;;;;;;;814956;73;26366;-86
2022/02/13 03:29:05;;;;;;;5.17;4.05;;;;;;;;;;797616;74;26365;-84
2022/02/13 03:30:08;;;;;;;4.53;3.50;;;;;;;;;;815229;73;26261;-85
2022/02/13 03:31:11;;;;;;;3.70;3.22;;;;;;;;;;815205;73;26333;-81
2022/02/13 03:32:14;;;;;;;3.77;3.47;;;;;;;;;;815361;72;26264;-85
2022/02/13 03:33:16;;;;;;;4.00;3.67;;;;;;;;;;815152;73;26308;-84
2022/02/13 03:34:19;;;;;;;3.72;3.27;;;;;;;;;;800171;74;26737;-85
2022/02/13 03:35:22;;;;;;;3.87;3.58;;;;;;;;;;815149;72;26324;-84
2022/02/13 03:36:25;;;;;;;4.20;3.72;;;;;;;;;;815315;73;24685;-84
2022/02/13 03:37:27;;;;;;;4.33;3.58;;;;;;;;;;800244;74;26299;-88
2022/02/13 03:38:30;;;;;;;4.37;3.90;;;;;;;;;;815286;73;24954;-83
2022/02/13 03:39:33;;;;;;;3.77;3.45;;;;;;;;;;815200;73;26269;-84
2022/02/13 03:40:36;;;;;;;3.27;2.98;;;;;;;;;;815315;73;26318;-83
2022/02/13 03:41:39;;;;;;;3.70;3.40;;;;;;;;;;815340;73;24925;-83
2022/02/13 03:42:42;;;;;;;4.42;3.70;;;;;;;;;;815342;73;26244;-83
2022/02/13 03:43:45;;;;;;;4.12;3.50;;;;;;;;;;815339;73;24633;-85
2022/02/13 03:44:49;;;;;;;4.47;3.30;;;;;;;;;;815044;73;26221;-85
2022/02/13 03:45:51;;;;;;;3.70;3.40;;;;;;;;;;815224;73;26324;-84
2022/02/13 03:46:54;;;;;;;4.87;3.45;;;;;;;;;;815179;73;26253;-82
2022/02/13 03:47:57;;;;;;;4.22;3.87;;;;;;;;;;815198;72;26276;-84
2022/02/13 03:49:01;;;;;;;3.47;3.10;;;;;;;;;;800101;74;26327;-86
2022/02/13 03:50:04;;;;;;;3.83;3.50;;;;;;;;;;814908;73;26284;-85
2022/02/13 03:51:06;;;;;;;5.33;3.55;;;;;;;;;;815283;73;26393;-86
2022/02/13 03:52:09;;;;;;;6.28;3.00;;;;;;;;;;800098;74;26345;-85
2022/02/13 03:53:12;;;;;;;4.50;3.25;;;;;;;;;;815359;73;24673;-85
2022/02/13 03:54:15;;;;;;;5.17;3.45;;;;;;;;;;800131;74;26396;-84
2022/02/13 03:55:18;;;;;;;5.17;3.42;;;;;;;;;;797402;74;27235;-84
2022/02/13 03:56:20;;;;;;;3.47;3.17;;;;;;;;;;815198;73;24302;-85
2022/02/13 03:57:23;;;;;;;4.12;3.83;;;;;;;;;;800017;73;26345;-82
2022/02/13 03:58:26;;;;;;;3.65;3.08;;;;;;;;;;815290;73;24646;-84
2022/02/13 03:59:29;;;;;;;3.50;3.15;;;;;;;;;;815288;73;26296;-83
2022/02/13 04:00:31;;;;;;;3.95;3.35;;;;;;;;;;800145;74;26349;-82
2022/02/13 04:01:35;;;;;;;3.65;3.35;;;;;;;;;;799961;74;26842;-84
2022/02/13 04:02:38;;;;;;;3.72;3.42;;;;;;;;;;815036;73;26280;-83
2022/02/13 04:03:40;;;;;;;4.50;3.90;;;;;;;;;;814990;73;26311;-84
2022/02/13 04:04:43;;;;;;;4.17;3.77;;;;;;;;;;815219;73;26328;-83
2022/02/13 04:05:47;;;;;;;4.00;3.60;;;;;;;;;;800185;74;26245;-84
2022/02/13 04:06:50;;;;;;;3.95;3.00;;;;;;;;;;814924;73;26686;-86
2022/02/13 04:07:52;;;;;;;4.37;3.70;;;;;;;;;;815109;73;26808;-85
2022/02/13 04:08:55;;;;;;;4.83;3.98;;;;;;;;;;815086;73;26311;-84
2022/02/13 04:09:58;;;;;;;4.20;3.27;;;;;;;;;;800057;74;26240;-84
2022/02/13 04:11:01;;;;;;;4.37;3.27;;;;;;;;;;797657;74;26331;-84
2022/02/13 04:12:04;;;;;;;3.87;3.50;;;;;;;;;;814907;73;26325;-84
2022/02/13 04:13:07;;;;;;;4.22;3.80;;;;;;;;;;815189;73;26260;-84
2022/02/13 04:14:10;;;;;;;3.50;3.20;;;;;;;;;;815262;73;26284;-84
2022/02/13 04:15:12;;;;;;;7.75;4.28;;;;;;;;;;815293;72;26284;-85
2022/02/13 04:16:16;;;;;;;3.40;3.10;;;;;;;;;;800092;74;26702;-86
2022/02/13 04:17:20;;;;;;;5.05;3.67;;;;;;;;;;814998;73;26292;-83
2022/02/13 04:18:23;;;;;;;4.12;3.65;;;;;;;;;;799933;74;26333;-83
2022/02/13 04:19:25;;;;;;;3.85;3.55;;;;;;;;;;815090;73;26718;-83
2022/02/13 04:20:28;;;;;;;5.15;3.55;;;;;;;;;;815159;73;26261;-82
2022/02/13 04:21:31;;;;;;;4.50;3.85;;;;;;;;;;797499;74;26354;-83
2022/02/13 04:22:33;;;;;;;4.25;3.85;;;;;;;;;;800016;74;26287;-86
2022/02/13 04:23:36;;;;;;;4.35;3.72;;;;;;;;;;814928;73;26280;-83
2022/02/13 04:24:39;;;;;;;4.45;4.05;;;;;;;;;;815239;73;26308;-86
2022/02/13 04:25:42;;;;;;;4.72;4.10;;;;;;;;;;815068;73;26362;-86
2022/02/13 04:26:45;;;;;;;5.25;4.05;;;;;;;;;;797521;74;26338;-87
2022/02/13 04:27:48;;;;;;;4.15;3.80;;;;;;;;;;815104;73;26527;-85
2022/02/13 04:28:51;;;;;;;4.28;3.87;;;;;;;;;;797376;74;27016;-83
2022/02/13 04:29:53;;;;;;;5.58;3.80;;;;;;;;;;815121;72;26396;-84
2022/02/13 04:30:56;;;;;;;4.90;4.00;;;;;;;;;;815035;73;26217;-83
2022/02/13 04:31:59;;;;;;;6.78;3.80;;;;;;;;;;815252;73;26476;-86
2022/02/13 04:33:02;;;;;;;6.15;4.10;;;;;;;;;;815282;73;24593;-84
2022/02/13 04:34:07;;;;;;;4.87;4.17;;;;;;;;;;814965;73;26268;-82
2022/02/13 04:35:09;;;;;;;5.95;4.72;;;;;;;;;;815152;73;26306;-84
2022/02/13 04:36:12;;;;;;;5.17;4.10;;;;;;;;;;815177;73;26253;-84
2022/02/13 04:37:16;;;;;;;4.92;3.67;;;;;;;;;;815084;73;26417;-86
2022/02/13 04:38:21;;;;;;;8.05;4.83;;;;;;;;;;800029;74;26244;-83
2022/02/13 04:39:23;;;;;;;6.17;4.15;;;;;;;;;;814924;73;26213;-85
2022/02/13 04:40:26;;;;;;;5.45;3.40;;;;;;;;;;815183;73;26292;-83
2022/02/13 04:41:29;;;;;;;4.28;3.87;;;;;;;;;;797531;74;26365;-85
2022/02/13 04:42:32;;;;;;;5.50;4.08;;;;;;;;;;815219;73;26291;-84
2022/02/13 04:43:34;;;;;;;5.10;4.03;;;;;;;;;;815134;73;26338;-84
2022/02/13 04:44:37;;;;;;;5.47;4.30;;;;;;;;;;814978;73;26483;-85
2022/02/13 04:45:40;;;;;;;5.00;3.75;;;;;;;;;;814938;73;26331;-86
2022/02/13 04:46:43;;;;;;;4.92;4.37;;;;;;;;;;815198;73;26303;-86
2022/02/13 04:47:48;;;;;;;4.42;3.70;;;;;;;;;;815104;73;26308;-86
2022/02/13 04:48:50;;;;;;;5.03;4.40;;;;;;;;;;815211;73;26230;-84
2022/02/13 04:49:53;;;;;;;5.55;4.00;;;;;;;;;;815156;73;26761;-86
2022/02/13 04:50:55;;;;;;;9.53;4.47;;;;;;;;;;814887;73;24708;-84
2022/02/13 04:51:58;;;;;;;7.12;4.55;;;;;;;;;;815127;73;24544;-84
2022/02/13 04:53:02;;;;;;;5.20;4.30;;;;;;;;;;815246;73;26269;-85
2022/02/13 04:54:05;;;;;;;4.67;4.25;;;;;;;;;;815190;73;26273;-83
2022/02/13 04:55:08;;;;;;;4.97;3.65;;;;;;;;;;815180;73;26273;-82
2022/02/13 04:56:10;;;;;;;4.87;4.37;;;;;;;;;;814812;73;26230;-84
2022/02/13 04:57:13;;;;;;;7.22;4.00;;;;;;;;;;800039;74;26356;-84
2022/02/13 04:58:19;;;;;;;5.03;4.50;;;;;;;;;;815472;71;26292;-86
2022/02/13 04:59:22;;;;;;;4.55;4.00;;;;;;;;;;815604;73;26582;-83
2022/02/13 05:00:24;;;;;;;5.60;4.80;;;;;;;;;;815254;72;26369;-83
2022/02/13 05:01:28;;;;;;;6.10;4.70;;;;;;;;;;814899;73;26292;-86
2022/02/13 05:02:31;;;;;;;6.72;5.12;;;;;;;;;;814940;73;26299;-84
2022/02/13 05:03:34;;;;;;;4.60;4.15;;;;;;;;;;815153;72;26314;-83
2022/02/13 05:04:37;;;;;;;5.15;4.65;;;;;;;;;;800128;74;26525;-83
2022/02/13 05:05:40;;;;;;;6.70;4.53;;;;;;;;;;815392;73;26276;-83
2022/02/13 05:06:42;;;;;;;6.35;5.08;;;;;;;;;;815151;73;26218;-83
2022/02/13 05:07:45;;;;;;;5.62;5.12;;;;;;;;;;814822;73;26552;-84
2022/02/13 05:08:48;;;;;;;6.08;4.90;;;;;;;;;;814985;73;26369;-83
2022/02/13 05:09:50;;;;;;;6.47;4.75;;;;;;;;;;815344;73;26293;-83
2022/02/13 05:10:53;;;;;;;5.25;4.33;;;;;;;;;;815093;73;26376;-84
2022/02/13 05:11:56;;;;;;;5.20;4.72;;;;;;;;;;815128;73;26267;-84
2022/02/13 05:12:59;;;;;;;5.90;4.70;;;;;;;;;;814865;73;26221;-83
2022/02/13 05:14:02;;;;;;;5.83;4.95;;;;;;;;;;815080;73;26271;-84
2022/02/13 05:15:05;;;;;;;7.53;4.40;;;;;;;;;;815095;73;26269;-81
2022/02/13 05:16:09;;;;;;;5.80;5.10;;;;;;;;;;815160;73;26299;-81
2022/02/13 05:17:12;;;;;;;6.80;5.58;;;;;;;;;;815071;73;26242;-84
2022/02/13 05:18:15;;;;;;;7.03;4.95;;;;;;;;;;797265;74;26296;-84
2022/02/13 05:19:18;;;;;;;5.62;4.90;;;;;;;;;;815183;73;26272;-82
2022/02/13 05:20:20;;;;;;;7.22;4.90;;;;;;;;;;815059;73;26309;-84
2022/02/13 05:21:23;;;;;;;6.95;5.40;;;;;;;;;;815039;73;26276;-84
2022/02/13 05:22:26;;;;;;;6.05;4.95;;;;;;;;;;800001;74;26385;-83
2022/02/13 05:23:28;;;;;;;5.92;5.33;;;;;;;;;;814864;73;26299;-86
2022/02/13 05:24:35;;;;;;;5.92;4.58;;;;;;;;;;815188;73;26249;-84
2022/02/13 05:25:35;;;;;;;7.20;6.12;;;;;;;;;;814616;72;26319;-85
2022/02/13 05:26:38;;;;;;;7.65;5.92;;;;;;;;;;786093;75;26338;-88
2022/02/13 05:27:41;;;;;;;6.50;5.10;;;;;;;;;;786314;74;26251;-84
2022/02/13 05:28:44;;;;;;;7.80;5.35;;;;;;;;;;814914;73;26781;-84
2022/02/13 05:29:46;;;;;;;6.10;4.97;;;;;;;;;;815283;72;26292;-84
2022/02/13 05:30:51;;;;;;;7.30;5.42;;;;;;;;;;800338;74;26728;-85
2022/02/13 05:31:54;;;;;;;5.58;5.08;;;;;;;;;;815280;73;26269;-86
2022/02/13 05:32:57;;;;;;;8.10;5.62;;;;;;;;;;814432;73;26362;-82
2022/02/13 05:34:00;;;;;;;5.85;5.35;;;;;;;;;;799888;74;26303;-84
2022/02/13 05:35:03;;;;;;;5.67;5.17;;;;;;;;;;815078;73;26265;-83
2022/02/13 05:36:06;;;;;;;5.90;5.30;;;;;;;;;;815109;73;26209;-84
2022/02/13 05:37:09;;;;;;;6.10;5.45;;;;;;;;;;815128;73;26390;-85
2022/02/13 05:38:11;;;;;;;6.90;6.20;;;;;;;;;;815010;73;26690;-84
2022/02/13 05:39:15;;;;;;;6.37;5.58;;;;;;;;;;815169;73;26350;-86
2022/02/13 05:40:18;;;;;;;6.60;6.00;;;;;;;;;;814937;73;26330;-85
2022/02/13 05:41:21;;;;;;;6.80;5.72;;;;;;;;;;815085;73;26324;-86
2022/02/13 05:42:24;;;;;;;8.78;5.80;;;;;;;;;;815065;73;26254;-86
2022/02/13 05:43:28;;;;;;;6.75;6.03;;;;;;;;;;815110;73;26361;-86
2022/02/13 05:44:30;;;;;;;5.97;5.25;;;;;;;;;;815194;73;26293;-83
2022/02/13 05:45:33;;;;;;;8.78;5.70;;;;;;;;;;797303;74;26744;-81
2022/02/13 05:46:36;;;;;;;8.00;5.35;;;;;;;;;;815110;73;26622;-84
2022/02/13 05:47:39;;;;;;;6.75;5.45;;;;;;;;;;815153;73;26373;-83
2022/02/13 05:48:45;;;;;;;6.80;5.80;;;;;;;;;;815075;73;26226;-85
2022/02/13 05:49:46;;;;;;;8.20;5.62;;;;;;;;;;797494;74;26361;-84
2022/02/13 05:50:48;;;;;;;6.12;5.53;;;;;;;;;;815094;73;26647;-86
2022/02/13 05:51:53;;;;;;;7.53;6.00;;;;;;;;;;814814;73;26328;-83
2022/02/13 05:52:55;;;;;;;6.22;5.62;;;;;;;;;;815109;73;26354;-86
2022/02/13 05:53:58;;;;;;;9.88;5.70;;;;;;;;;;799842;74;26312;-84
2022/02/13 05:55:01;;;;;;;8.15;5.20;;;;;;;;;;817550;72;26295;-86
2022/02/13 05:56:04;;;;;;;11.45;5.62;;;;;;;;;;815102;73;26730;-84
2022/02/13 05:57:07;;;;;;;9.35;6.20;;;;;;;;;;814950;73;26660;-85
2022/02/13 05:58:10;;;;;;;8.13;5.47;;;;;;;;;;800150;74;26361;-83
2022/02/13 05:59:13;;;;;;;7.28;6.55;;;;;;;;;;815142;72;26265;-86
2022/02/13 06:00:16;;;;;;;6.92;6.25;;;;;;;;;;815226;73;26249;-85
2022/02/13 06:01:19;;;;;;;8.60;6.05;;;;;;;;;;815902;73;26365;-84
2022/02/13 06:02:22;;;;;;;7.30;6.20;;;;;;;;;;815818;73;26397;-86
2022/02/13 06:03:24;;;;;;;6.97;6.28;;;;;;;;;;815969;73;26249;-82
2022/02/13 06:04:27;;;;;;;8.68;5.97;;;;;;;;;;815816;73;26355;-83
2022/02/13 06:05:30;;;;;;;8.18;6.67;;;;;;;;;;815356;73;26257;-85
2022/02/13 06:06:33;;;;;;;6.28;5.65;;;;;;;;;;815313;73;26285;-85
2022/02/13 06:07:37;;;;;;;7.37;6.05;;;;;;;;;;799945;74;26352;-82
2022/02/13 06:08:40;;;;;;;6.60;6.00;;;;;;;;;;814913;73;26812;-84
2022/02/13 06:09:43;;;;;;;9.68;6.83;;;;;;;;;;797520;74;26741;-81
2022/02/13 06:10:45;;;;;;;7.30;6.50;;;;;;;;;;815310;73;26214;-83
2022/02/13 06:11:49;;;;;;;7.37;5.92;;;;;;;;;;815199;73;26345;-82
2022/02/13 06:12:51;;;;;;;7.28;6.35;;;;;;;;;;799947;74;26694;-82
2022/02/13 06:13:54;;;;;;;7.58;6.25;;;;;;;;;;815003;73;26277;-83
2022/02/13 06:14:57;;;;;;;9.65;6.90;;;;;;;;;;799941;74;26376;-81
2022/02/13 06:16:01;;;;;;;7.50;6.70;;;;;;;;;;815337;73;26385;-81
2022/02/13 06:17:04;;;;;;;8.10;6.85;;;;;;;;;;815456;73;26285;-80
2022/02/13 06:18:07;;;;;;;7.72;6.05;;;;;;;;;;800196;74;26279;-81
2022/02/13 06:19:10;;;;;;;9.78;6.75;;;;;;;;;;800539;74;26333;-81
2022/02/13 06:20:13;;;;;;;7.90;6.40;;;;;;;;;;798013;74;26318;-83